EW7158 Weather Reports


time (UTC)temp
C
wind
direction
speed
KPH
gust
KPH
rain 1hr
cm
rain 24hr
cm
rain mn
cm
humidity
%
barometer
mb
20210920050432 11 90 0.0 0.0 0.03 2.84 2.67 100 1016.8
20210920045519 11 90 0.0 0.0 0.00 2.82 2.64 100 1016.5
20210920044534 11 90 0.0 0.0 0.00 2.84 2.64 100 1016.4
20210920043618 11 90 0.0 0.0 0.00 2.84 2.64 100 1016.4
20210920042619 11 90 1.6 3.2 0.00 2.84 2.64 100 1016.0
20210920041618 11 90 0.0 0.0 0.00 2.84 2.64 100 1016.0
20210920040617 11 90 0.0 3.2 0.00 2.84 2.64 100 1015.7
20210920035618 11 90 0.0 3.2 0.00 2.84 2.64 100 1015.7
20210920034617 11 90 1.6 3.2 0.00 2.84 2.64 100 1015.7
20210920033618 11 90 0.0 0.0 0.00 2.84 2.64 100 1015.7
20210920032618 11 90 0.0 0.0 0.00 2.84 2.64 100 1015.4
20210920031617 11 90 0.0 0.0 0.00 2.84 2.64 100 1015.0
20210920030633 11 90 0.0 0.0 0.00 2.87 2.64 100 1015.0
20210920025718 11 90 0.0 3.2 0.00 2.87 2.64 100 1014.7
20210920024735 11 90 1.6 3.2 0.00 2.87 2.64 100 1014.7
20210920024634 11 90 1.6 3.2 0.00 2.87 2.64 100 1014.7
20210920023732 11 90 0.0 0.0 0.00 2.87 2.64 100 1014.7
20210920022819 11 270 0.0 3.2 0.00 2.87 2.64 100 1014.3
20210920021835 11 270 0.0 0.0 0.00 2.87 2.64 100 1014.3
20210920021719 11 270 1.6 3.2 0.00 2.87 2.64 100 1014.3
20210920020717 11 270 0.0 1.6 0.00 2.87 2.64 100 1014.3
20210920015734 11 90 0.0 0.0 0.00 2.90 2.64 100 1014.0
20210920014718 12 270 0.0 3.2 0.00 2.90 2.64 100 1014.0
20210920013817 12 90 1.6 3.2 0.00 2.90 2.64 100 1014.0
20210920012818 12 278 0.0 1.6 0.00 2.90 2.64 100 1014.0
20210920011817 12 270 0.0 0.0 0.00 2.90 2.64 100 1014.0
20210920010818 12 270 1.6 3.2 0.00 2.90 2.64 100 1013.6
20210920005818 12 270 0.0 0.0 0.00 2.90 2.64 100 1013.7
20210920004917 12 270 0.0 3.2 0.00 2.90 2.64 100 1013.6
20210920003933 12 270 1.6 3.2 0.00 2.90 2.64 100 1013.6
20210920003833 12 270 0.0 3.2 0.00 2.90 2.64 100 1013.6
20210920002818 12 270 0.0 3.2 0.00 2.92 2.64 100 1013.3
20210920001820 12 270 0.0 3.2 0.00 2.92 2.64 100 1013.0
20210920000821 12 292 0.0 0.0 0.00 2.92 2.64 100 1013.0
20210919235917 12 292 0.0 0.0 0.00 2.92 2.64 100 1013.0
20210919235836 12 292 0.0 0.0 0.00 2.92 2.64 100 1013.0
20210919234917 12 292 0.0 0.0 0.00 2.92 2.64 100 1013.0
20210919233918 12 22 0.0 0.0 2.08 2.92 2.64 100 1013.0
20210919232933 12 22 0.0 0.0 2.08 2.92 2.64 100 1013.0
20210919232020 12 22 0.0 0.0 2.08 2.92 2.64 100 1013.0
20210919231017 12 22 1.6 3.2 2.08 2.92 2.64 100 1013.0
20210919230018 12 22 1.6 3.2 2.08 2.92 2.64 100 1013.0
20210919225017 12 22 0.0 0.0 2.08 2.92 2.64 100 1013.0
20210919224018 12 22 0.0 1.6 0.00 0.86 0.56 100 1013.0
20210919223035 12 22 0.0 1.6 0.03 0.89 0.56 100 1013.0
20210919222933 12 22 0.0 0.0 0.03 0.89 0.56 100 1013.0
20210919221917 12 22 0.0 3.2 0.03 0.89 0.56 100 1013.0
20210919220917 11 315 0.0 0.0 0.03 0.89 0.56 100 1013.0
20210919215919 11 315 0.0 0.0 0.03 0.89 0.56 100 1013.0
20210919214933 11 292 0.0 1.6 0.03 0.91 0.56 100 1012.6
20210919214018 12 360 0.0 0.0 0.03 0.91 0.56 100 1012.6
20210919213918 12 360 0.0 0.0 0.03 0.91 0.56 100 1012.6
20210919213017 12 45 0.0 0.0 0.03 0.89 0.53 100 1012.6
20210919212018 12 33 0.0 3.2 0.03 0.89 0.53 100 1012.3
20210919211019 11 45 0.0 3.2 0.03 0.89 0.53 100 1012.3
20210919210036 11 22 0.0 3.2 0.03 0.89 0.53 100 1012.1
20210919205018 11 22 0.0 3.2 0.03 0.89 0.53 100 1011.9
20210919204032 11 22 0.0 3.2 0.03 0.91 0.53 100 1011.9
20210919203018 11 22 0.0 3.2 0.00 0.89 0.51 100 1011.9
20210919202017 12 337 1.6 4.8 0.00 0.89 0.51 100 1011.8
20210919201018 12 360 0.0 3.2 0.03 0.89 0.51 100 1011.5
20210919200035 12 292 0.0 3.2 0.03 0.91 0.51 100 1011.5
20210919195018 12 22 0.0 0.0 0.03 0.91 0.51 100 1011.5
20210919194033 11 337 0.0 1.6 0.03 0.91 0.51 100 1011.2
20210919193918 11 349 0.0 0.0 0.03 0.91 0.51 100 1011.2
20210919192919 12 360 0.0 1.6 0.03 0.91 0.51 100 1010.9
20210919191916 11 22 1.6 3.2 0.05 0.91 0.51 100 1010.9
20210919190919 11 22 0.0 3.2 0.03 0.91 0.48 100 1010.9
20210919190017 11 360 0.0 3.2 0.03 0.91 0.48 100 1010.9
20210919185917 11 360 0.0 3.2 0.03 0.91 0.48 100 1010.9
20210919184919 11 24 0.0 4.8 0.03 0.91 0.48 100 1010.5
20210919184016 11 45 0.0 3.2 0.03 0.91 0.48 100 1010.5
20210919183020 11 337 0.0 0.0 0.03 0.94 0.48 100 1010.2
20210919182019 11 270 0.0 0.0 0.00 0.91 0.46 100 1010.2
20210919181917 11 341 0.0 1.6 0.00 0.91 0.46 100 1010.2
20210919180918 11 360 0.0 0.0 0.03 0.91 0.46 100 1009.8
20210919175917 11 360 0.0 0.0 0.03 0.91 0.46 100 1009.8
20210919174934 11 337 0.0 0.0 0.03 0.91 0.46 100 1009.5
20210919173919 11 337 0.0 0.0 0.03 0.94 0.46 100 1009.5
20210919173817 11 337 0.0 0.0 0.03 0.94 0.46 100 1009.5
20210919172819 11 270 0.0 0.0 0.03 0.94 0.46 100 1009.5
20210919171834 11 270 0.0 0.0 0.05 0.94 0.46 100 1009.2
20210919170818 11 270 0.0 0.0 0.03 0.94 0.43 100 1009.2
20210919165834 11 360 0.0 0.0 0.03 0.94 0.43 100 1008.8
20210919164832 11 360 0.0 0.0 0.03 0.94 0.43 100 1008.8
20210919164716 11 360 0.0 0.0 0.03 0.94 0.43 100 1008.8
20210919163719 11 360 0.0 0.0 0.03 0.94 0.43 100 1008.5
20210919162737 11 360 0.0 1.6 0.03 0.97 0.43 100 1008.5
20210919161833 11 337 0.0 0.0 0.03 0.94 0.41 100 1008.1
20210919160917 11 337 0.0 0.0 0.03 0.97 0.41 100 1008.1
20210919155918 11 337 0.0 0.0 0.03 0.97 0.41 100 1008.1
20210919154917 11 337 0.0 0.0 0.03 0.97 0.41 100 1007.8
20210919153918 11 337 0.0 0.0 0.05 0.97 0.41 100 1007.8
20210919152933 10 337 0.0 0.0 0.05 0.99 0.41 100 1007.8
20210919152817 10 337 0.0 0.0 0.05 0.99 0.41 100 1007.8
20210919152719 10 337 0.0 0.0 0.05 0.99 0.41 100 1007.8
20210919151735 10 337 0.0 0.0 0.03 0.97 0.38 100 1007.4
20210919150819 10 337 0.0 0.0 0.03 0.99 0.38 100 1007.4
20210919145818 10 337 0.0 0.0 0.03 0.99 0.38 100 1007.4
20210919145717 10 337 0.0 0.0 0.03 0.99 0.38 100 1007.4
20210919145617 10 337 0.0 0.0 0.03 0.99 0.38 100 1007.4
20210919144618 10 337 0.0 0.0 0.03 0.97 0.36 100 1007.1
20210919144518 10 337 0.0 0.0 0.03 0.97 0.36 100 1007.1
20210919143518 10 337 0.0 0.0 0.03 0.99 0.36 100 1007.1
20210919142617 10 337 0.0 0.0 0.03 0.99 0.36 100 1007.0
20210919141618 10 337 0.0 0.0 0.05 1.02 0.36 100 1006.8
20210919140618 10 337 0.0 0.0 0.05 1.02 0.36 100 1006.8
20210919135618 10 337 0.0 0.0 0.05 1.02 0.36 100 1006.4
20210919134619 10 337 0.0 0.0 0.03 1.02 0.33 100 1006.0
20210919133632 10 337 0.0 0.0 0.03 1.02 0.33 100 1006.0
20210919132634 10 22 0.0 0.0 0.05 1.04 0.33 100 1006.0
20210919131719 10 360 0.0 0.0 0.03 1.02 0.30 100 1006.0
20210919130717 10 360 0.0 0.0 0.03 1.02 0.30 100 1005.7
20210919125717 10 360 0.0 1.6 0.05 1.04 0.30 100 1005.7
20210919124717 10 360 0.0 0.0 0.05 1.07 0.30 100 1005.4
20210919123718 10 22 0.0 0.0 0.05 1.07 0.30 100 1005.4
20210919122718 10 22 0.0 3.2 0.03 1.04 0.28 100 1005.4
20210919121719 10 24 0.0 3.2 0.05 1.04 0.28 100 1005.4
20210919120735 10 67 0.0 0.0 0.05 1.04 0.28 100 1005.4
20210919115718 10 67 0.0 0.0 0.03 1.02 0.25 100 1005.0
20210919115618 10 67 0.0 0.0 0.03 1.02 0.25 100 1005.0
20210919114617 10 67 0.0 0.0 0.05 1.02 0.25 100 1005.0
20210919114516 10 67 0.0 0.0 0.05 1.02 0.25 100 1005.0
20210919113517 10 67 0.0 0.0 0.05 1.02 0.25 100 1004.7
20210919112518 10 67 0.0 0.0 0.05 1.02 0.25 100 1004.7
20210919111519 10 67 0.0 0.0 0.05 0.99 0.23 100 1004.7
20210919110532 10 67 0.0 1.6 0.05 0.99 0.23 100 1004.7
20210919105518 10 67 0.0 0.0 0.03 0.97 0.20 100 1004.4
20210919104534 10 45 0.0 0.0 0.05 0.97 0.20 100 1004.4
20210919103617 10 45 0.0 0.0 0.05 0.97 0.20 100 1004.0
20210919102618 10 45 0.0 0.0 0.05 0.97 0.20 100 1004.0
20210919101619 10 45 0.0 0.0 0.03 0.94 0.18 100 1004.0
20210919100617 10 45 0.0 0.0 0.05 0.94 0.18 100 1004.0
20210919100535 10 45 0.0 0.0 0.05 0.94 0.18 100 1004.0
20210919095517 10 360 0.0 0.0 0.05 0.94 0.18 100 1004.0
20210919095419 10 360 0.0 0.0 0.05 0.94 0.18 100 1004.0
20210919094517 10 337 0.0 0.0 0.05 0.91 0.15 100 1004.0
20210919093535 10 337 0.0 0.0 0.05 0.91 0.15 100 1004.0
20210919092519 10 337 0.0 0.0 0.05 0.91 0.15 100 1004.0
20210919091517 10 360 0.0 0.0 0.08 0.91 0.13 100 1004.0
20210919090519 10 360 0.0 0.0 0.05 0.89 0.13 100 1004.0
20210919085518 10 360 0.0 1.6 0.08 0.89 0.13 100 1003.7
20210919084534 10 298 0.0 0.0 0.05 0.86 0.10 100 1003.3
20210919083619 10 360 0.0 0.0 0.05 0.86 0.10 100 1003.3
20210919082717 10 360 0.0 0.0 0.08 0.86 0.10 100 1003.3
20210919081816 10 314 0.0 3.2 0.08 0.86 0.10 100 1003.3
20210919080818 10 292 0.0 0.0 0.08 0.84 0.08 100 1003.3
20210919075832 10 360 0.0 3.2 0.08 0.84 0.08 100 1003.3
20210919074917 11 45 0.0 3.2 0.05 0.81 0.05 100 1003.3
20210919073933 11 22 0.0 0.0 0.08 0.81 0.05 100 1003.3
20210919073019 11 270 0.0 0.0 0.08 0.81 0.05 100 1002.9
20210919072016 11 270 0.0 0.0 0.08 0.79 0.03 100 1002.9
20210919071018 11 270 0.0 0.0 0.08 0.79 0.00 100 1002.9
20210919070116 11 90 0.0 0.0 0.08 0.76 0.00 100 1002.6
20210919065108 11 270 0.0 0.0 0.10 0.76 0.76 100 1002.6
20210919064107 11 270 0.0 0.0 0.08 0.71 0.71 100 1002.6
20210919064009 11 270 0.0 0.0 0.08 0.71 0.71 100 1002.6
20210919063108 11 270 0.0 0.0 0.10 0.71 0.71 100 1002.6
20210919062108 11 270 0.0 0.0 0.10 0.71 0.71 100 1002.6
20210919061109 11 270 0.0 1.6 0.10 0.71 0.71 100 1002.6
20210919060207 11 270 0.0 1.6 0.10 0.69 0.69 100 1002.6
20210919055210 11 270 0.0 0.0 0.08 0.66 0.66 100 1002.6
20210919054224 11 270 1.6 3.2 0.10 0.66 0.66 100 1002.3
20210919053308 11 270 0.0 3.2 0.08 0.64 0.64 100 1002.3
20210919052407 11 270 1.6 3.2 0.05 0.61 0.61 100 1001.9
20210919051425 11 270 0.0 1.6 0.05 0.61 0.61 100 1001.9